Ana Sayfa
METAR-TAF:

METAR-TAF

Havaalanları :

Maracaibo, Venezuela

Enlem: 10-34N, Boylam: 071-44W, yükseklik: 66 m

Güncel hava durumu gözlemi

Rapor saat 22:00 UTC de 2 saat ve 30 dakika önce yapıldı.
Rüzgar kuzeydoğudan 4 kt
Sıcaklık 24°C
Nem 94%
Basınç 1009 hPa
Görüş mesafesi 10 km veya daha fazla
1300 ft yükseklikte parçalı çok bulutlu

METAR: SVMC 192200Z 05004KT 9999 BKN013 24/23 Q1009

Saat: 20:30 (00:30 UTC)

Tahmin

Rapor saat 22:00 UTC de 2 saat ve 30 dakika önce yapıldı.
Ayın 20'si saat 00 UTC'den ayın 21'si saat 00 UTC'ye kadar geçerli Tahmin
Rüzgar değişken yönden 6 kt
Görüş mesafesi: 9000 m
1600 ft yükseklikte parçalı çok bulutlu
çisenti
Geçici
ayın 20'si saat 00 UTC'den ayın 20'si saat 04 UTC'ye kadar
Rüzgar değişken yönden 6 kt
Görüş mesafesi: 9000 m
1600 ft yükseklikte parçalı çok bulutlu
çisenti

TAF: SVMC 192200Z 2000/2100 VRB06KT 9000 DZ BKN016 TX33/19Z TN24/08Z TEMPO 2000/2004 VRB06KT 9000 DZ BKN016

4.000'den fazla havaalanı için hava durumu gözlemleri ve tahminleri (METAR ve TAF raporları).

Kullanılabilir istasyonlar harita üzerinde sarı ve kırmızı noktalarla gösterilir.

İstasyonun adını görmek için fareyi noktanın üzerinde gezdirin.

Sonrasında hava gözlem ve tahminlerini görmek için tıklayın.

Haritayı değiştirmek için: yaklaştırmak için siyah artı işaretli yeşil düğmeye ve uzaklaştırmak için de eksi işaretli düğmeye hızla tıklayın; bitişik haritalar için yeşil okları kullanın.


METAR-TAF: